sensor_id;sensor_type;location;lat;lon;timestamp;pressure;altitude;pressure_sealevel;temperature;humidity
59315;BME280;46521;50.160;20.802;2022-08-27T00:06:57;99191.11;;;19.94;54.69
59315;BME280;46521;50.160;20.802;2022-08-27T00:16:59;99190.02;;;19.67;54.81
59315;BME280;46521;50.160;20.802;2022-08-27T00:27:02;99184.42;;;19.27;55.48
59315;BME280;46521;50.160;20.802;2022-08-27T00:37:29;99169.27;;;19.33;55.76
59315;BME280;46521;50.160;20.802;2022-08-27T00:47:35;99165.65;;;19.27;56.16
59315;BME280;46521;50.160;20.802;2022-08-27T00:57:44;99163.68;;;19.23;56.35
59315;BME280;46521;50.160;20.802;2022-08-27T01:07:50;99174.16;;;19.24;56.89
59315;BME280;46521;50.160;20.802;2022-08-27T01:17:58;99170.69;;;19.12;56.59
59315;BME280;46521;50.160;20.802;2022-08-27T01:28:06;99181.30;;;18.83;56.39
59315;BME280;46521;50.160;20.802;2022-08-27T01:38:12;99172.22;;;18.37;56.79
59315;BME280;46521;50.160;20.802;2022-08-27T01:48:15;99176.36;;;18.21;57.32
59315;BME280;46521;50.160;20.802;2022-08-27T01:58:21;99174.37;;;18.16;57.67
59315;BME280;46521;50.160;20.802;2022-08-27T02:18:56;99163.75;;;17.98;57.95
59315;BME280;46521;50.160;20.802;2022-08-27T02:39:04;99165.01;;;17.65;58.32
59315;BME280;46521;50.160;20.802;2022-08-27T02:49:06;99162.49;;;17.52;58.92
59315;BME280;46521;50.160;20.802;2022-08-27T02:59:08;99171.39;;;17.64;59.25
59315;BME280;46521;50.160;20.802;2022-08-27T03:09:10;99169.03;;;17.56;59.31
59315;BME280;46521;50.160;20.802;2022-08-27T03:29:19;99162.38;;;17.28;60.02
59315;BME280;46521;50.160;20.802;2022-08-27T03:39:22;99166.52;;;17.42;60.15
59315;BME280;46521;50.160;20.802;2022-08-27T03:49:24;99157.50;;;17.55;60.27
59315;BME280;46521;50.160;20.802;2022-08-27T03:59:26;99164.27;;;17.58;59.95
59315;BME280;46521;50.160;20.802;2022-08-27T04:09:31;99168.59;;;17.59;60.14
59315;BME280;46521;50.160;20.802;2022-08-27T04:19:32;99167.75;;;17.58;60.25
59315;BME280;46521;50.160;20.802;2022-08-27T04:29:38;99168.59;;;17.59;60.55
59315;BME280;46521;50.160;20.802;2022-08-27T04:39:40;99166.33;;;17.74;60.93
59315;BME280;46521;50.160;20.802;2022-08-27T04:49:42;99180.16;;;17.71;60.71
59315;BME280;46521;50.160;20.802;2022-08-27T04:59:44;99167.99;;;17.87;61.35
59315;BME280;46521;50.160;20.802;2022-08-27T05:09:46;99168.95;;;18.59;60.93
59315;BME280;46521;50.160;20.802;2022-08-27T05:19:47;99175.91;;;19.31;60.89
59315;BME280;46521;50.160;20.802;2022-08-27T05:29:50;99188.34;;;19.89;60.42
59315;BME280;46521;50.160;20.802;2022-08-27T05:39:52;99168.92;;;20.50;59.96
59315;BME280;46521;50.160;20.802;2022-08-27T05:49:54;99171.59;;;21.23;59.09
59315;BME280;46521;50.160;20.802;2022-08-27T05:59:55;99158.66;;;21.91;58.63
59315;BME280;46521;50.160;20.802;2022-08-27T06:20:46;99166.05;;;23.19;56.75
59315;BME280;46521;50.160;20.802;2022-08-27T06:30:50;99167.06;;;23.81;55.66
59315;BME280;46521;50.160;20.802;2022-08-27T06:40:52;99164.44;;;24.33;54.94
59315;BME280;46521;50.160;20.802;2022-08-27T06:50:54;99162.45;;;24.95;53.76
59315;BME280;46521;50.160;20.802;2022-08-27T07:00:56;99156.00;;;25.56;52.92
59315;BME280;46521;50.160;20.802;2022-08-27T07:10:58;99153.55;;;26.04;52.41
59315;BME280;46521;50.160;20.802;2022-08-27T07:21:01;99153.05;;;26.61;51.60
59315;BME280;46521;50.160;20.802;2022-08-27T07:31:07;99152.59;;;27.07;50.36
59315;BME280;46521;50.160;20.802;2022-08-27T07:41:11;99154.59;;;27.45;49.75
59315;BME280;46521;50.160;20.802;2022-08-27T07:51:15;99154.09;;;28.00;48.74
59315;BME280;46521;50.160;20.802;2022-08-27T08:01:17;99168.53;;;28.47;47.65
59315;BME280;46521;50.160;20.802;2022-08-27T08:11:19;99180.22;;;29.08;47.51
59315;BME280;46521;50.160;20.802;2022-08-27T08:21:20;99191.03;;;29.27;46.09
59315;BME280;46521;50.160;20.802;2022-08-27T08:31:22;99188.79;;;29.43;45.32
59315;BME280;46521;50.160;20.802;2022-08-27T08:51:37;99187.20;;;29.42;44.79
59315;BME280;46521;50.160;20.802;2022-08-27T09:01:41;99188.44;;;29.73;44.39
59315;BME280;46521;50.160;20.802;2022-08-27T09:32:07;99171.28;;;31.52;41.87
59315;BME280;46521;50.160;20.802;2022-08-27T09:42:31;99178.74;;;31.95;41.01
59315;BME280;46521;50.160;20.802;2022-08-27T09:52:45;99181.92;;;32.32;39.47
59315;BME280;46521;50.160;20.802;2022-08-27T10:02:51;99173.66;;;32.58;38.46
59315;BME280;46521;50.160;20.802;2022-08-27T10:13:04;99181.27;;;32.53;38.19
59315;BME280;46521;50.160;20.802;2022-08-27T10:23:32;99169.55;;;32.91;37.36
59315;BME280;46521;50.160;20.802;2022-08-27T10:34:15;99161.91;;;33.35;36.37
59315;BME280;46521;50.160;20.802;2022-08-27T10:44:48;99156.71;;;33.63;35.63
59315;BME280;46521;50.160;20.802;2022-08-27T11:05:08;99152.44;;;33.53;35.06
59315;BME280;46521;50.160;20.802;2022-08-27T11:15:34;99143.34;;;33.62;34.62
59315;BME280;46521;50.160;20.802;2022-08-27T11:25:51;99133.44;;;33.69;34.18
59315;BME280;46521;50.160;20.802;2022-08-27T11:47:09;99134.59;;;33.89;32.32
59315;BME280;46521;50.160;20.802;2022-08-27T11:57:32;99123.45;;;33.73;31.99
59315;BME280;46521;50.160;20.802;2022-08-27T12:07:40;99129.84;;;33.56;31.97
59315;BME280;46521;50.160;20.802;2022-08-27T12:28:06;99114.86;;;33.33;31.41
59315;BME280;46521;50.160;20.802;2022-08-27T12:38:14;99117.28;;;33.04;31.90
59315;BME280;46521;50.160;20.802;2022-08-27T12:48:23;99097.39;;;32.86;32.11
59315;BME280;46521;50.160;20.802;2022-08-27T12:58:42;99093.23;;;32.80;30.77
59315;BME280;46521;50.160;20.802;2022-08-27T13:09:07;99087.48;;;32.73;31.20
59315;BME280;46521;50.160;20.802;2022-08-27T13:29:25;99085.41;;;32.23;30.90
59315;BME280;46521;50.160;20.802;2022-08-27T13:39:26;99087.35;;;31.96;30.71
59315;BME280;46521;50.160;20.802;2022-08-27T13:49:31;99076.16;;;31.71;31.34
59315;BME280;46521;50.160;20.802;2022-08-27T13:59:38;99057.16;;;31.66;30.81
59315;BME280;46521;50.160;20.802;2022-08-27T14:09:43;99057.04;;;31.54;31.32
59315;BME280;46521;50.160;20.802;2022-08-27T14:19:46;99066.97;;;31.50;31.11
59315;BME280;46521;50.160;20.802;2022-08-27T14:29:49;99064.71;;;31.34;31.11
59315;BME280;46521;50.160;20.802;2022-08-27T14:39:51;99052.98;;;31.25;30.10
59315;BME280;46521;50.160;20.802;2022-08-27T14:49:52;99054.25;;;31.19;30.62
59315;BME280;46521;50.160;20.802;2022-08-27T14:59:54;99047.16;;;31.00;30.68
59315;BME280;46521;50.160;20.802;2022-08-27T15:09:55;99053.70;;;30.90;31.01
59315;BME280;46521;50.160;20.802;2022-08-27T15:19:57;99052.24;;;30.76;30.95
59315;BME280;46521;50.160;20.802;2022-08-27T15:29:58;99049.95;;;30.60;31.01
59315;BME280;46521;50.160;20.802;2022-08-27T15:40:01;99041.39;;;30.44;31.16
59315;BME280;46521;50.160;20.802;2022-08-27T15:50:02;99025.88;;;30.22;30.92
59315;BME280;46521;50.160;20.802;2022-08-27T16:00:05;99036.81;;;29.99;32.19
59315;BME280;46521;50.160;20.802;2022-08-27T16:10:08;99040.03;;;29.79;32.67
59315;BME280;46521;50.160;20.802;2022-08-27T16:20:12;99042.08;;;29.51;34.12
59315;BME280;46521;50.160;20.802;2022-08-27T16:30:14;99043.00;;;29.09;35.28
59315;BME280;46521;50.160;20.802;2022-08-27T16:40:17;99046.48;;;28.60;36.71
59315;BME280;46521;50.160;20.802;2022-08-27T16:50:18;99066.77;;;28.20;38.28
59315;BME280;46521;50.160;20.802;2022-08-27T17:00:37;99068.03;;;27.76;39.30
59315;BME280;46521;50.160;20.802;2022-08-27T17:10:41;99073.55;;;27.52;40.49
59315;BME280;46521;50.160;20.802;2022-08-27T17:20:49;99088.27;;;27.27;41.51
59315;BME280;46521;50.160;20.802;2022-08-27T17:30:53;99105.70;;;27.02;41.84
59315;BME280;46521;50.160;20.802;2022-08-27T17:40:55;99113.58;;;26.79;42.26
59315;BME280;46521;50.160;20.802;2022-08-27T17:50:57;99123.06;;;26.52;42.72
59315;BME280;46521;50.160;20.802;2022-08-27T18:00:59;99131.62;;;26.35;43.53
59315;BME280;46521;50.160;20.802;2022-08-27T18:11:00;99135.59;;;26.14;43.70
59315;BME280;46521;50.160;20.802;2022-08-27T18:21:03;99130.02;;;26.00;44.13
59315;BME280;46521;50.160;20.802;2022-08-27T18:31:05;99144.00;;;25.72;44.69
59315;BME280;46521;50.160;20.802;2022-08-27T18:41:08;99157.34;;;25.59;45.20
59315;BME280;46521;50.160;20.802;2022-08-27T18:51:12;99155.48;;;25.54;45.05
59315;BME280;46521;50.160;20.802;2022-08-27T19:01:19;99165.23;;;25.55;45.73
59315;BME280;46521;50.160;20.802;2022-08-27T19:11:24;99179.88;;;25.44;46.29
59315;BME280;46521;50.160;20.802;2022-08-27T19:21:25;99175.61;;;25.27;46.72
59315;BME280;46521;50.160;20.802;2022-08-27T19:31:27;99180.61;;;24.89;47.50
59315;BME280;46521;50.160;20.802;2022-08-27T19:41:29;99174.70;;;24.61;48.33
59315;BME280;46521;50.160;20.802;2022-08-27T19:51:30;99179.86;;;24.58;48.61
59315;BME280;46521;50.160;20.802;2022-08-27T20:01:32;99192.52;;;24.42;48.95
59315;BME280;46521;50.160;20.802;2022-08-27T20:11:33;99215.47;;;24.08;49.50
59315;BME280;46521;50.160;20.802;2022-08-27T20:21:34;99221.37;;;23.85;50.40
59315;BME280;46521;50.160;20.802;2022-08-27T20:31:36;99222.60;;;23.56;51.44
59315;BME280;46521;50.160;20.802;2022-08-27T20:41:37;99222.53;;;23.41;52.36
59315;BME280;46521;50.160;20.802;2022-08-27T20:51:39;99218.96;;;23.25;53.50
59315;BME280;46521;50.160;20.802;2022-08-27T21:01:40;99198.52;;;23.39;53.73
59315;BME280;46521;50.160;20.802;2022-08-27T21:11:41;99212.41;;;23.79;54.09
59315;BME280;46521;50.160;20.802;2022-08-27T21:21:43;99216.81;;;24.01;53.98
59315;BME280;46521;50.160;20.802;2022-08-27T21:31:44;99221.67;;;24.09;53.99
59315;BME280;46521;50.160;20.802;2022-08-27T21:41:47;99227.04;;;23.88;54.55
59315;BME280;46521;50.160;20.802;2022-08-27T21:51:49;99225.30;;;23.56;55.26
59315;BME280;46521;50.160;20.802;2022-08-27T22:01:50;99221.48;;;23.47;55.71
59315;BME280;46521;50.160;20.802;2022-08-27T22:11:52;99197.45;;;23.41;56.07
59315;BME280;46521;50.160;20.802;2022-08-27T22:21:53;99183.56;;;23.16;56.55
59315;BME280;46521;50.160;20.802;2022-08-27T22:31:54;99188.16;;;23.16;56.61
59315;BME280;46521;50.160;20.802;2022-08-27T23:03:07;99189.74;;;23.12;57.24
59315;BME280;46521;50.160;20.802;2022-08-27T23:13:11;99189.87;;;22.90;57.46
59315;BME280;46521;50.160;20.802;2022-08-27T23:23:13;99208.81;;;23.00;57.51
59315;BME280;46521;50.160;20.802;2022-08-27T23:33:14;99201.77;;;22.94;58.05
59315;BME280;46521;50.160;20.802;2022-08-27T23:43:17;99197.93;;;22.84;58.54
59315;BME280;46521;50.160;20.802;2022-08-27T23:53:18;99149.14;;;22.86;58.64
